Pagina principale
METAR-TAF:

METAR-TAF

Aeroporti :

Aeroporto di Trapani-Birgi

Trapani, Italia

latitudine: 37-55N, longitudine: 012-30E, altezza: 7 m

Osservazione

Il bollettino è stato emesso 17 minuti fa, alle 02:55 UTC
Vento 8 kt da nord-ovest
Temperature 13°C
Umidità 88%
Pressione 1027 hPa
Visibilità 10 km o più
Nuvoloso ad un'altezza di 1800 ft

METAR: LICT 240255Z 32008KT 9999 BKN018 13/11 Q1027

Ora: 04:12 (03:12 UTC)

Previsione

Il bollettino è stato emesso 1 ora e 12 minuti fa, alle 02:00 UTC
Previsione valida dal 24 alle 03 UTC al 24 alle 12 UTC
Vento 7 kt da ovest/nord-ovest
Visibilità 10 km o più
Nuvoloso ad un'altezza di 2500 ft

TAF: LICT 240200Z 2403/2412 29007KT 9999 BKN025

Osservazioni e previsioni meteorologiche di più di 4000 aeroporti (messaggi METAR e TAF).

Le stazioni disponibili sono rappresentate dai dischi gialli e rossi sulla carta.

Puntare il mouse per vedere il nome della stazione.

Clicca sopra per visualizzare le osservazioni e previsioni meteorologiche.

Per cambiare la mappa : fare clic sui pulsanti verdi con una croce nera per ingrandire, il pulsante verde con un trattino per diminuire, o sulla freccia verde per le mappe adiacenti.


METAR-TAF: